Markham, Texas
Current Conditions -  °F | °C
As of 11:53 PM on Thursday 30 Oct 2014 (Local Time) from KPSX Reporting Station
Clear Clear  
Wind Chill: 68°   Ceiling: Unl
Heat Index: 68°   Visibility: 10mi
Dew Point: 65°   Wind: 3mph
Humidity: 90%   Direction: 90°E
Pressure: 30.08"   Gusts: NA
Location:  28.96°N, 96.07°W
Report Text: KPSX 310453Z AUTO 09003KT 10SM CLR 20/18 A3008 RMK AO2 SLP186 T02000183
Loading
Personal Weather Stations






























Interactive Weather Map
Tropical Storm Tracking
New forecast layout! Learn more

10-Day Weather Forecast

Advertisements
Track Severe Weather on mobile